createdAt,value
2018-10-06T00:00:18.492Z,6.50
2018-10-06T00:02:46.759Z,7.50
2018-10-06T00:05:14.888Z,8.23
2018-10-06T00:07:43.152Z,6.40
2018-10-06T00:10:12.100Z,6.67
2018-10-06T00:12:40.330Z,5.83
2018-10-06T00:15:08.683Z,6.30
2018-10-06T00:17:36.978Z,6.57
2018-10-06T00:20:06.013Z,6.23
2018-10-06T00:22:34.831Z,7.10
2018-10-06T00:25:03.761Z,7.13
2018-10-06T00:27:32.023Z,6.70
2018-10-06T00:30:00.577Z,6.70
2018-10-06T00:32:28.949Z,6.93
2018-10-06T00:34:57.203Z,6.80
2018-10-06T00:37:25.787Z,6.93
2018-10-06T00:39:53.916Z,6.60
2018-10-06T00:42:22.084Z,6.43
2018-10-06T00:44:51.225Z,5.70
2018-10-06T00:47:19.467Z,5.90
2018-10-06T00:49:47.581Z,6.47
2018-10-06T00:52:22.453Z,7.73
2018-10-06T00:54:50.595Z,6.90
2018-10-06T00:57:18.834Z,7.50
2018-10-06T00:59:46.990Z,6.23
2018-10-06T01:02:15.161Z,7.13
2018-10-06T01:04:43.501Z,7.93
2018-10-06T01:07:11.683Z,6.67
2018-10-06T01:09:40.527Z,7.37
2018-10-06T01:12:08.820Z,6.87
2018-10-06T01:14:36.976Z,6.60
2018-10-06T01:17:05.152Z,6.30
2018-10-06T01:19:34.668Z,6.93
2018-10-06T01:22:02.904Z,7.00
2018-10-06T01:24:31.168Z,7.00
2018-10-06T01:26:59.342Z,6.77
2018-10-06T01:29:30.743Z,6.60
2018-10-06T01:32:00.558Z,6.80
2018-10-06T01:34:28.818Z,6.43
2018-10-06T01:36:57.165Z,6.63
2018-10-06T01:39:25.312Z,6.53
2018-10-06T01:41:54.450Z,6.40
2018-10-06T01:44:22.876Z,6.20
2018-10-06T01:46:51.837Z,5.87
2018-10-06T01:49:20.012Z,6.53
2018-10-06T01:51:48.290Z,6.53
2018-10-06T01:54:17.655Z,6.40
2018-10-06T01:56:45.832Z,6.47
2018-10-06T01:59:14.068Z,6.67
2018-10-06T02:01:42.315Z,6.63
2018-10-06T02:04:10.534Z,6.70
2018-10-06T02:06:39.328Z,7.03
2018-10-06T02:09:07.684Z,6.43
2018-10-06T02:11:35.986Z,6.77
2018-10-06T02:14:04.352Z,6.47
2018-10-06T02:16:33.174Z,6.60
2018-10-06T02:19:01.606Z,6.93
2018-10-06T02:21:29.853Z,6.30
2018-10-06T02:23:58.136Z,6.53
2018-10-06T02:26:26.389Z,6.83
2018-10-06T02:28:55.027Z,6.60
2018-10-06T02:31:23.244Z,6.67
2018-10-06T02:33:51.569Z,7.30
2018-10-06T02:36:20.034Z,6.67
2018-10-06T02:38:48.313Z,6.60
2018-10-06T02:41:17.204Z,6.70
2018-10-06T02:43:46.534Z,6.97
2018-10-06T02:46:14.961Z,6.93
2018-10-06T02:48:43.235Z,6.60
2018-10-06T02:51:11.483Z,6.93
2018-10-06T02:53:39.736Z,6.57
2018-10-06T02:56:07.957Z,6.80
2018-10-06T02:58:36.801Z,6.40
2018-10-06T03:01:05.046Z,6.83
2018-10-06T03:03:33.279Z,6.20
2018-10-06T03:06:01.452Z,6.60
2018-10-06T03:08:30.316Z,7.23
2018-10-06T03:10:58.582Z,6.87
2018-10-06T03:13:27.760Z,6.50
2018-10-06T03:15:57.353Z,7.00
2018-10-06T03:18:25.629Z,6.17
2018-10-06T03:20:54.708Z,6.90
2018-10-06T03:23:23.077Z,6.93
2018-10-06T03:25:52.083Z,6.57
2018-10-06T03:28:20.301Z,6.90
2018-10-06T03:30:48.629Z,6.50
2018-10-06T03:33:18.025Z,6.77
2018-10-06T03:35:46.211Z,6.47
2018-10-06T03:38:14.397Z,7.00
2018-10-06T03:40:43.218Z,6.70
2018-10-06T03:43:11.511Z,7.30
2018-10-06T03:45:40.367Z,7.07
2018-10-06T03:48:09.770Z,7.10
2018-10-06T03:50:37.924Z,6.97
2018-10-06T03:53:07.021Z,6.97
2018-10-06T03:55:35.216Z,7.00
2018-10-06T03:58:03.546Z,7.53
2018-10-06T04:00:31.738Z,7.03
2018-10-06T04:02:59.900Z,7.00
2018-10-06T04:05:28.018Z,7.30
2018-10-06T04:07:56.942Z,7.13
2018-10-06T04:10:25.436Z,6.60
2018-10-06T04:12:53.680Z,7.43
2018-10-06T04:15:21.963Z,7.03
2018-10-06T04:17:50.392Z,6.60
2018-10-06T04:20:18.688Z,7.53
2018-10-06T04:22:47.148Z,7.37
2018-10-06T04:25:15.306Z,6.30
2018-10-06T04:27:44.182Z,6.43
2018-10-06T04:30:12.720Z,7.20
2018-10-06T04:32:41.654Z,6.67
2018-10-06T04:35:09.841Z,6.97
2018-10-06T04:37:38.026Z,7.33
2018-10-06T04:40:07.196Z,7.53
2018-10-06T04:42:35.477Z,7.00
2018-10-06T04:45:03.729Z,6.53
2018-10-06T04:47:31.960Z,6.70
2018-10-06T04:50:00.678Z,7.50
2018-10-06T04:52:28.967Z,6.70
2018-10-06T04:54:57.085Z,7.47
2018-10-06T04:57:25.393Z,7.43
2018-10-06T04:59:53.871Z,6.87
2018-10-06T05:02:22.007Z,7.73
2018-10-06T05:04:50.757Z,6.90
2018-10-06T05:07:19.005Z,7.37
2018-10-06T05:09:47.363Z,7.40
2018-10-06T05:12:15.639Z,8.00
2018-10-06T05:14:43.821Z,7.57
2018-10-06T05:17:11.956Z,7.13
2018-10-06T05:19:40.133Z,7.60
2018-10-06T05:22:08.344Z,7.50
2018-10-06T05:24:38.265Z,7.37
2018-10-06T05:27:06.880Z,6.70
2018-10-06T05:29:36.324Z,7.70
2018-10-06T05:32:04.492Z,7.37
2018-10-06T05:34:33.546Z,7.87
2018-10-06T05:37:01.750Z,7.67
2018-10-06T05:39:29.975Z,8.20
2018-10-06T05:41:59.115Z,8.00
2018-10-06T05:44:27.364Z,7.90
2018-10-06T05:46:55.600Z,8.17
2018-10-06T05:49:23.925Z,7.40
2018-10-06T05:51:52.140Z,7.77
2018-10-06T05:54:20.451Z,8.23
2018-10-06T05:56:48.652Z,7.77
2018-10-06T05:59:16.951Z,7.43
2018-10-06T06:01:45.142Z,7.27
2018-10-06T06:04:13.396Z,7.03
2018-10-06T06:06:41.813Z,7.03
2018-10-06T06:09:09.975Z,8.07
2018-10-06T06:11:38.148Z,8.00
2018-10-06T06:14:06.476Z,7.67
2018-10-06T06:16:34.739Z,7.73
2018-10-06T06:19:02.918Z,7.90
2018-10-06T06:21:31.146Z,7.70
2018-10-06T06:23:59.569Z,7.60
2018-10-06T06:26:27.718Z,7.30
2018-10-06T06:28:56.842Z,8.37
2018-10-06T06:31:25.154Z,7.77
2018-10-06T06:33:53.236Z,8.30
2018-10-06T06:36:21.458Z,8.57
2018-10-06T06:38:49.615Z,8.43
2018-10-06T06:41:17.793Z,7.67
2018-10-06T06:43:46.111Z,7.17
2018-10-06T06:46:14.057Z,7.63
2018-10-06T06:48:43.042Z,7.50
2018-10-06T06:51:11.327Z,8.07
2018-10-06T06:53:39.536Z,7.83
2018-10-06T06:56:08.450Z,8.20
2018-10-06T06:58:37.368Z,8.17
2018-10-06T07:01:05.679Z,7.73
2018-10-06T07:03:33.881Z,7.97
2018-10-06T07:06:02.069Z,8.10
2018-10-06T07:08:30.508Z,7.67
2018-10-06T07:10:58.824Z,7.93
2018-10-06T07:13:27.959Z,8.40
2018-10-06T07:16:03.573Z,8.10
2018-10-06T07:18:32.011Z,8.17
2018-10-06T07:21:00.940Z,8.40
2018-10-06T07:23:29.269Z,7.47
2018-10-06T07:25:58.582Z,8.43
2018-10-06T07:28:26.771Z,7.93
2018-10-06T07:30:55.231Z,7.73
2018-10-06T07:33:23.376Z,9.20
2018-10-06T07:35:51.614Z,8.13
2018-10-06T07:38:19.856Z,8.93
2018-10-06T07:40:48.171Z,8.03
2018-10-06T07:43:16.476Z,7.47
2018-10-06T07:45:45.608Z,7.23
2018-10-06T07:48:13.829Z,7.93
2018-10-06T07:50:42.062Z,7.50
2018-10-06T07:53:10.448Z,8.93
2018-10-06T07:55:38.597Z,7.60
2018-10-06T07:58:08.047Z,7.60
2018-10-06T08:00:36.421Z,7.87
2018-10-06T08:03:04.723Z,8.00
2018-10-06T08:05:33.047Z,7.63
2018-10-06T08:08:01.185Z,8.33
2018-10-06T08:10:29.328Z,8.03
2018-10-06T08:12:57.628Z,7.93
2018-10-06T08:15:26.542Z,8.60
2018-10-06T08:17:55.430Z,8.57
2018-10-06T08:20:23.680Z,7.53
2018-10-06T08:22:52.753Z,8.27
2018-10-06T08:25:20.918Z,9.03
2018-10-06T08:27:49.594Z,7.93
2018-10-06T08:30:18.617Z,7.70
2018-10-06T08:32:48.116Z,8.50
2018-10-06T08:35:16.286Z,7.63
2018-10-06T08:37:45.089Z,7.70
2018-10-06T08:40:13.992Z,8.07
2018-10-06T08:42:42.231Z,7.83
2018-10-06T08:45:11.245Z,7.43
2018-10-06T08:47:39.475Z,8.70
2018-10-06T08:50:07.773Z,7.63
2018-10-06T08:52:36.577Z,8.10
2018-10-06T08:55:04.944Z,8.60
2018-10-06T08:57:33.391Z,8.73
2018-10-06T09:00:01.630Z,8.27
2018-10-06T09:02:29.948Z,8.50
2018-10-06T09:04:58.235Z,8.57
2018-10-06T09:07:26.468Z,8.33
2018-10-06T09:09:54.799Z,8.37
2018-10-06T09:12:23.607Z,7.70
2018-10-06T09:14:51.918Z,8.20
2018-10-06T09:17:20.421Z,8.87
2018-10-06T09:19:48.628Z,8.80
2018-10-06T09:22:16.929Z,8.00
2018-10-06T09:24:45.214Z,8.40
2018-10-06T09:27:13.393Z,8.60
2018-10-06T09:29:41.714Z,8.67
2018-10-06T09:32:09.939Z,9.23
2018-10-06T09:34:38.134Z,8.73
2018-10-06T09:37:06.461Z,9.47
2018-10-06T09:39:34.663Z,8.67
2018-10-06T09:42:03.045Z,10.37
2018-10-06T09:44:31.244Z,7.07
2018-10-06T09:46:59.718Z,9.88
2018-10-06T09:49:27.913Z,9.13
2018-10-06T09:51:56.838Z,8.75
2018-10-06T09:54:25.642Z,9.15
2018-10-06T09:56:53.886Z,7.70
2018-10-06T09:59:22.216Z,7.95
2018-10-06T10:01:56.944Z,7.53
2018-10-06T10:04:25.430Z,7.62
2018-10-06T10:06:53.620Z,8.85
2018-10-06T10:09:22.365Z,6.92
2018-10-06T10:11:50.570Z,6.65
2018-10-06T10:14:18.928Z,6.75
2018-10-06T10:16:47.173Z,8.28
2018-10-06T10:19:15.354Z,6.85
2018-10-06T10:21:43.666Z,6.70
2018-10-06T10:24:11.922Z,6.50
2018-10-06T10:26:40.725Z,6.47
2018-10-06T10:29:09.390Z,6.35
2018-10-06T10:31:37.709Z,6.33
2018-10-06T10:34:06.263Z,5.90
2018-10-06T10:36:35.477Z,6.62
2018-10-06T10:39:04.526Z,5.70
2018-10-06T10:41:33.153Z,6.45
2018-10-06T10:44:01.427Z,7.67
2018-10-06T10:46:29.641Z,6.20
2018-10-06T10:48:58.041Z,7.03
2018-10-06T10:51:26.223Z,5.75
2018-10-06T10:53:54.523Z,5.67
2018-10-06T10:56:23.419Z,5.60
2018-10-06T10:58:51.659Z,7.12
2018-10-06T11:01:19.945Z,7.25
2018-10-06T11:03:48.304Z,6.17
2018-10-06T11:06:16.523Z,6.17
2018-10-06T11:08:45.457Z,5.78
2018-10-06T11:11:13.783Z,6.60
2018-10-06T11:13:42.699Z,5.58
2018-10-06T11:16:11.201Z,5.87
2018-10-06T11:18:40.711Z,5.28
2018-10-06T11:21:09.043Z,5.87
2018-10-06T11:23:37.321Z,4.30
2018-10-06T11:26:05.823Z,5.15
2018-10-06T11:28:34.281Z,4.85
2018-10-06T11:31:02.598Z,4.83
2018-10-06T11:33:30.774Z,5.10
2018-10-06T11:35:58.957Z,5.42
2018-10-06T11:38:27.221Z,5.25
2018-10-06T11:40:55.370Z,5.60
2018-10-06T11:43:23.599Z,5.20
2018-10-06T11:45:51.862Z,5.80
2018-10-06T11:48:20.221Z,5.33
2018-10-06T11:50:48.493Z,5.45
2018-10-06T11:53:16.936Z,5.33
2018-10-06T11:55:45.266Z,5.12
2018-10-06T11:58:13.464Z,5.28
2018-10-06T12:00:42.733Z,4.78
2018-10-06T12:03:11.408Z,4.70
2018-10-06T12:05:39.700Z,4.40
2018-10-06T12:08:08.824Z,5.10
2018-10-06T12:10:37.154Z,5.05
2018-10-06T12:13:05.584Z,5.30
2018-10-06T12:15:34.422Z,4.45
2018-10-06T12:18:02.704Z,3.90
2018-10-06T12:20:31.011Z,4.70
2018-10-06T12:22:59.338Z,4.47
2018-10-06T12:25:28.396Z,4.62
2018-10-06T12:27:57.479Z,5.00
2018-10-06T12:30:25.769Z,3.92
2018-10-06T12:32:54.810Z,3.55
2018-10-06T12:35:23.047Z,4.60
2018-10-06T12:37:51.251Z,4.67
2018-10-06T12:40:19.563Z,4.83
2018-10-06T12:42:48.016Z,4.20
2018-10-06T12:45:16.216Z,4.72
2018-10-06T12:47:44.762Z,4.72
2018-10-06T12:50:13.683Z,4.75
2018-10-06T12:52:41.851Z,4.45
2018-10-06T12:55:10.699Z,4.80
2018-10-06T12:57:38.875Z,5.00
2018-10-06T13:00:07.300Z,4.83
2018-10-06T13:02:35.415Z,3.90
2018-10-06T13:05:03.693Z,4.20
2018-10-06T13:07:31.952Z,4.80
2018-10-06T13:10:00.157Z,4.97
2018-10-06T13:12:28.398Z,4.67
2018-10-06T13:14:56.594Z,5.10
2018-10-06T13:17:24.825Z,4.77
2018-10-06T13:19:53.101Z,4.47
2018-10-06T13:22:21.417Z,4.00
2018-10-06T13:24:49.581Z,4.83
2018-10-06T13:27:18.599Z,4.00
2018-10-06T13:29:46.867Z,5.00
2018-10-06T13:32:15.344Z,4.70
2018-10-06T13:34:43.872Z,4.40
2018-10-06T13:37:12.254Z,4.63
2018-10-06T13:39:40.513Z,4.23
2018-10-06T13:42:08.734Z,4.50
2018-10-06T13:44:36.988Z,3.80
2018-10-06T13:47:05.306Z,4.40
2018-10-06T13:49:34.454Z,4.57
2018-10-06T13:52:02.714Z,4.20
2018-10-06T13:54:30.913Z,4.50
2018-10-06T13:56:59.143Z,4.03
2018-10-06T13:59:27.355Z,4.40
2018-10-06T14:01:55.583Z,3.77
2018-10-06T14:04:23.827Z,4.40
2018-10-06T14:06:52.678Z,3.60
2018-10-06T14:09:20.820Z,3.80
2018-10-06T14:11:49.164Z,3.70
2018-10-06T14:14:17.414Z,3.90
2018-10-06T14:16:45.676Z,3.77
2018-10-06T14:19:13.847Z,4.13
2018-10-06T14:21:42.037Z,3.93
2018-10-06T14:24:10.316Z,4.10
2018-10-06T14:26:38.542Z,3.83
2018-10-06T14:29:06.730Z,3.87
2018-10-06T14:31:35.504Z,3.37
2018-10-06T14:34:03.919Z,3.73
2018-10-06T14:36:32.168Z,3.50
2018-10-06T14:39:00.786Z,3.33
2018-10-06T14:41:29.138Z,4.00
2018-10-06T14:43:57.425Z,3.60
2018-10-06T14:46:25.601Z,3.23
2018-10-06T14:48:53.833Z,3.23
2018-10-06T14:51:22.039Z,3.40
2018-10-06T14:53:50.205Z,3.20
2018-10-06T14:56:18.508Z,2.80
2018-10-06T14:58:47.050Z,3.13
2018-10-06T15:01:15.819Z,2.90
2018-10-06T15:03:44.115Z,2.53
2018-10-06T15:06:12.255Z,3.30
2018-10-06T15:08:40.485Z,3.57
2018-10-06T15:11:08.658Z,3.30
2018-10-06T15:13:36.844Z,3.57
2018-10-06T15:16:05.228Z,4.00
2018-10-06T15:18:33.387Z,3.63
2018-10-06T15:21:01.708Z,4.10
2018-10-06T15:23:30.349Z,4.10
2018-10-06T15:25:58.524Z,3.70
2018-10-06T15:28:27.334Z,4.17
2018-10-06T15:30:55.584Z,4.33
2018-10-06T15:33:23.864Z,4.43
2018-10-06T15:35:52.070Z,4.23
2018-10-06T15:38:20.280Z,4.43
2018-10-06T15:40:49.303Z,5.10
2018-10-06T15:43:18.141Z,4.33
2018-10-06T15:45:46.359Z,4.50
2018-10-06T15:48:14.632Z,4.50
2018-10-06T15:50:43.077Z,5.87
2018-10-06T15:53:11.224Z,4.60
2018-10-06T15:55:39.548Z,4.63
2018-10-06T15:58:08.356Z,4.10
2018-10-06T16:00:36.576Z,4.93
2018-10-06T16:03:05.886Z,4.73
2018-10-06T16:05:34.019Z,4.60
2018-10-06T16:08:02.224Z,5.27
2018-10-06T16:10:30.401Z,4.60
2018-10-06T16:12:59.323Z,4.40
2018-10-06T16:15:28.148Z,4.00
2018-10-06T16:17:56.375Z,4.53
2018-10-06T16:20:24.597Z,7.33
2018-10-06T16:22:53.021Z,5.53
2018-10-06T16:25:21.286Z,4.80
2018-10-06T16:27:49.418Z,5.87
2018-10-06T16:30:17.678Z,5.90
2018-10-06T16:32:45.934Z,6.40
2018-10-06T16:35:14.156Z,5.87
2018-10-06T16:37:42.469Z,5.93
2018-10-06T16:40:10.908Z,5.03
2018-10-06T16:42:39.152Z,5.60
2018-10-06T16:45:07.369Z,6.20
2018-10-06T16:47:36.364Z,7.13
2018-10-06T16:50:04.660Z,7.33
2018-10-06T16:52:33.974Z,7.30
2018-10-06T16:55:02.919Z,6.97
2018-10-06T16:57:31.289Z,6.83
2018-10-06T16:59:59.628Z,6.27
2018-10-06T17:02:27.796Z,6.87
2018-10-06T17:04:55.998Z,8.63
2018-10-06T17:07:24.150Z,6.70
2018-10-06T17:09:52.462Z,6.97
2018-10-06T17:12:20.585Z,8.23
2018-10-06T17:14:48.792Z,7.93
2018-10-06T17:17:16.983Z,10.90
2018-10-06T17:19:45.143Z,9.40
2018-10-06T17:22:13.284Z,9.30
2018-10-06T17:24:41.510Z,9.13
2018-10-06T17:27:09.745Z,10.77
2018-10-06T17:29:37.978Z,10.57
2018-10-06T17:32:06.235Z,7.97
2018-10-06T17:34:34.395Z,5.87
2018-10-06T17:37:02.572Z,7.17
2018-10-06T17:39:30.853Z,6.63
2018-10-06T17:42:00.151Z,7.97
2018-10-06T17:44:28.504Z,9.20
2018-10-06T17:46:56.645Z,7.57
2018-10-06T17:49:24.932Z,8.20
2018-10-06T17:51:53.140Z,8.13
2018-10-06T17:54:21.449Z,6.93
2018-10-06T17:56:49.711Z,7.17
2018-10-06T17:59:17.904Z,7.37
2018-10-06T18:01:46.145Z,7.80
2018-10-06T18:04:15.065Z,8.37
2018-10-06T18:06:44.048Z,8.10
2018-10-06T18:09:12.317Z,8.87
2018-10-06T18:11:40.582Z,9.93
2018-10-06T18:14:08.716Z,9.03
2018-10-06T18:16:37.051Z,9.33
2018-10-06T18:19:05.594Z,8.30
2018-10-06T18:21:34.050Z,8.57
2018-10-06T18:24:02.000Z,8.90
2018-10-06T18:26:30.194Z,8.23
2018-10-06T18:28:58.451Z,7.67
2018-10-06T18:31:26.690Z,8.33
2018-10-06T18:33:54.868Z,7.70
2018-10-06T18:36:23.358Z,9.03
2018-10-06T18:38:51.455Z,8.10
2018-10-06T18:41:19.684Z,9.23
2018-10-06T18:43:48.061Z,8.97
2018-10-06T18:46:16.914Z,10.80
2018-10-06T18:48:45.928Z,8.50
2018-10-06T18:51:14.770Z,11.17
2018-10-06T18:53:42.914Z,11.17
2018-10-06T18:56:11.060Z,9.80
2018-10-06T18:58:39.289Z,8.80
2018-10-06T19:01:07.989Z,8.03
2018-10-06T19:03:36.798Z,7.90
2018-10-06T19:06:05.624Z,8.60
2018-10-06T19:08:34.222Z,8.67
2018-10-06T19:11:02.677Z,8.00
2018-10-06T19:13:31.236Z,8.27
2018-10-06T19:15:59.916Z,9.10
2018-10-06T19:18:29.479Z,6.90
2018-10-06T19:20:58.132Z,7.07
2018-10-06T19:23:26.928Z,7.03
2018-10-06T19:25:55.604Z,6.13
2018-10-06T19:28:24.084Z,6.23
2018-10-06T19:30:52.563Z,6.37
2018-10-06T19:33:21.300Z,5.47
2018-10-06T19:35:50.865Z,5.30
2018-10-06T19:38:19.454Z,5.30
2018-10-06T19:40:48.011Z,5.50
2018-10-06T19:43:16.761Z,5.40
2018-10-06T19:45:45.338Z,5.10
2018-10-06T19:48:14.546Z,5.17
2018-10-06T19:50:43.005Z,5.07
2018-10-06T19:53:12.201Z,4.67
2018-10-06T19:55:40.936Z,4.67
2018-10-06T19:58:09.523Z,4.43
2018-10-06T20:00:38.838Z,4.97
2018-10-06T20:03:07.503Z,4.60
2018-10-06T20:05:36.543Z,5.10
2018-10-06T20:08:06.155Z,5.13
2018-10-06T20:10:34.720Z,4.70
2018-10-06T20:13:03.248Z,4.20
2018-10-06T20:15:31.664Z,4.60
2018-10-06T20:18:00.405Z,4.33
2018-10-06T20:20:29.279Z,4.70
2018-10-06T20:22:58.437Z,4.87
2018-10-06T20:25:27.760Z,4.57
2018-10-06T20:27:56.113Z,5.13
2018-10-06T20:30:24.419Z,4.57
2018-10-06T20:32:52.597Z,4.23
2018-10-06T20:35:20.805Z,5.03
2018-10-06T20:37:49.065Z,5.17
2018-10-06T20:40:17.320Z,5.50
2018-10-06T20:42:45.635Z,5.43
2018-10-06T20:45:13.756Z,5.63
2018-10-06T20:47:42.005Z,5.40
2018-10-06T20:50:10.321Z,5.57
2018-10-06T20:52:38.574Z,6.10
2018-10-06T20:55:06.866Z,6.07
2018-10-06T20:57:35.273Z,5.70
2018-10-06T21:00:03.538Z,6.50
2018-10-06T21:02:31.737Z,5.67
2018-10-06T21:04:59.884Z,6.30
2018-10-06T21:07:28.025Z,6.20
2018-10-06T21:09:56.254Z,4.97
2018-10-06T21:12:24.538Z,6.30
2018-10-06T21:14:52.689Z,6.10
2018-10-06T21:17:20.893Z,6.50
2018-10-06T21:19:49.307Z,6.57
2018-10-06T21:22:17.385Z,5.87
2018-10-06T21:24:45.617Z,7.10
2018-10-06T21:27:13.767Z,5.80
2018-10-06T21:29:42.733Z,6.10
2018-10-06T21:32:10.678Z,6.70
2018-10-06T21:34:38.930Z,6.30
2018-10-06T21:37:07.236Z,6.67
2018-10-06T21:39:35.395Z,6.50
2018-10-06T21:42:03.590Z,6.90
2018-10-06T21:44:32.741Z,6.73
2018-10-06T21:47:01.288Z,7.27
2018-10-06T21:49:29.937Z,7.07
2018-10-06T21:51:58.086Z,6.53
2018-10-06T21:54:26.341Z,7.67
2018-10-06T21:56:54.626Z,7.40
2018-10-06T21:59:23.501Z,6.80
2018-10-06T22:01:51.662Z,6.67
2018-10-06T22:04:19.987Z,7.43
2018-10-06T22:06:48.198Z,7.43
2018-10-06T22:09:16.414Z,7.63
2018-10-06T22:11:44.885Z,7.43
2018-10-06T22:14:13.195Z,6.23
2018-10-06T22:16:41.472Z,6.20
2018-10-06T22:19:10.382Z,7.17
2018-10-06T22:21:39.207Z,6.97
2018-10-06T22:24:07.504Z,7.17
2018-10-06T22:26:35.707Z,7.03
2018-10-06T22:29:04.009Z,7.10
2018-10-06T22:31:32.462Z,6.33
2018-10-06T22:34:00.671Z,6.70
2018-10-06T22:36:28.942Z,6.93
2018-10-06T22:38:57.200Z,5.93
2018-10-06T22:41:25.349Z,6.47
2018-10-06T22:43:53.560Z,5.97
2018-10-06T22:46:21.789Z,7.17
2018-10-06T22:48:50.154Z,6.87
2018-10-06T22:51:19.189Z,6.73
2018-10-06T22:53:47.491Z,6.87
2018-10-06T22:56:16.353Z,6.67
2018-10-06T22:58:44.581Z,6.73
2018-10-06T23:01:13.403Z,6.83
2018-10-06T23:03:42.528Z,5.93
2018-10-06T23:06:10.649Z,7.37
2018-10-06T23:08:38.945Z,6.83
2018-10-06T23:11:07.175Z,6.90
2018-10-06T23:13:35.911Z,7.20
2018-10-06T23:16:04.216Z,6.77
2018-10-06T23:18:32.675Z,8.10
2018-10-06T23:21:00.828Z,7.80
2018-10-06T23:23:29.007Z,6.80
2018-10-06T23:25:57.238Z,7.87
2018-10-06T23:28:25.610Z,6.80
2018-10-06T23:30:53.800Z,8.30
2018-10-06T23:33:22.905Z,8.07
2018-10-06T23:35:51.814Z,7.87
2018-10-06T23:38:19.959Z,8.40
2018-10-06T23:40:48.142Z,7.53
2018-10-06T23:43:16.223Z,8.70
2018-10-06T23:45:45.220Z,7.67
2018-10-06T23:48:13.370Z,8.20
2018-10-06T23:50:41.556Z,7.77
2018-10-06T23:53:09.747Z,7.73
2018-10-06T23:55:38.706Z,8.93
2018-10-06T23:58:07.454Z,8.57
